sensor_id;sensor_type;location;lat;lon;timestamp;temperature;humidity
33988;DHT22;37428;53.580;-1.666;2023-08-12T00:01:14;16.70;71.00
33988;DHT22;37428;53.580;-1.666;2023-08-12T00:04:23;16.70;71.10
33988;DHT22;37428;53.580;-1.666;2023-08-12T00:07:40;16.60;71.40
33988;DHT22;37428;53.580;-1.666;2023-08-12T00:10:50;16.60;71.30
33988;DHT22;37428;53.580;-1.666;2023-08-12T00:13:54;16.60;71.50
33988;DHT22;37428;53.580;-1.666;2023-08-12T00:17:02;16.50;71.60
33988;DHT22;37428;53.580;-1.666;2023-08-12T00:20:16;16.50;71.90
33988;DHT22;37428;53.580;-1.666;2023-08-12T00:23:21;16.50;72.00
33988;DHT22;37428;53.580;-1.666;2023-08-12T00:26:24;16.50;72.10
33988;DHT22;37428;53.580;-1.666;2023-08-12T00:29:27;16.50;72.20
33988;DHT22;37428;53.580;-1.666;2023-08-12T00:32:35;16.40;72.50
33988;DHT22;37428;53.580;-1.666;2023-08-12T00:35:40;16.40;72.70
33988;DHT22;37428;53.580;-1.666;2023-08-12T00:38:42;16.50;72.90
33988;DHT22;37428;53.580;-1.666;2023-08-12T00:41:46;16.50;72.90
33988;DHT22;37428;53.580;-1.666;2023-08-12T00:44:58;16.40;73.10
33988;DHT22;37428;53.580;-1.666;2023-08-12T00:48:11;16.40;73.30
33988;DHT22;37428;53.580;-1.666;2023-08-12T00:51:14;16.30;73.70
33988;DHT22;37428;53.580;-1.666;2023-08-12T00:54:26;16.30;73.60
33988;DHT22;37428;53.580;-1.666;2023-08-12T00:57:29;16.30;74.00
33988;DHT22;37428;53.580;-1.666;2023-08-12T01:00:37;16.20;74.30
33988;DHT22;37428;53.580;-1.666;2023-08-12T01:03:43;16.20;74.40
33988;DHT22;37428;53.580;-1.666;2023-08-12T01:06:48;16.20;74.50
33988;DHT22;37428;53.580;-1.666;2023-08-12T01:09:50;16.20;74.60
33988;DHT22;37428;53.580;-1.666;2023-08-12T01:13:03;16.20;74.90
33988;DHT22;37428;53.580;-1.666;2023-08-12T01:16:09;16.20;74.90
33988;DHT22;37428;53.580;-1.666;2023-08-12T01:19:22;16.20;74.80
33988;DHT22;37428;53.580;-1.666;2023-08-12T01:22:30;16.20;74.70
33988;DHT22;37428;53.580;-1.666;2023-08-12T01:25:44;16.20;74.70
33988;DHT22;37428;53.580;-1.666;2023-08-12T01:28:47;16.10;74.80
33988;DHT22;37428;53.580;-1.666;2023-08-12T01:31:58;16.10;74.90
33988;DHT22;37428;53.580;-1.666;2023-08-12T01:35:17;16.10;74.90
33988;DHT22;37428;53.580;-1.666;2023-08-12T01:38:24;16.10;75.20
33988;DHT22;37428;53.580;-1.666;2023-08-12T01:41:32;16.10;75.50
33988;DHT22;37428;53.580;-1.666;2023-08-12T01:44:36;16.00;75.70
33988;DHT22;37428;53.580;-1.666;2023-08-12T01:47:45;16.00;76.00
33988;DHT22;37428;53.580;-1.666;2023-08-12T01:50:54;16.00;76.00
33988;DHT22;37428;53.580;-1.666;2023-08-12T01:53:58;15.90;75.90
33988;DHT22;37428;53.580;-1.666;2023-08-12T01:57:03;16.00;75.90
33988;DHT22;37428;53.580;-1.666;2023-08-12T02:00:08;16.00;74.90
33988;DHT22;37428;53.580;-1.666;2023-08-12T02:03:10;16.00;74.20
33988;DHT22;37428;53.580;-1.666;2023-08-12T02:06:12;16.00;74.20
33988;DHT22;37428;53.580;-1.666;2023-08-12T02:09:14;16.00;73.80
33988;DHT22;37428;53.580;-1.666;2023-08-12T02:12:19;16.10;73.80
33988;DHT22;37428;53.580;-1.666;2023-08-12T02:15:21;16.10;73.90
33988;DHT22;37428;53.580;-1.666;2023-08-12T02:18:26;16.10;73.60
33988;DHT22;37428;53.580;-1.666;2023-08-12T02:21:29;16.20;73.40
33988;DHT22;37428;53.580;-1.666;2023-08-12T02:24:33;16.10;73.50
33988;DHT22;37428;53.580;-1.666;2023-08-12T02:27:37;16.20;73.40
33988;DHT22;37428;53.580;-1.666;2023-08-12T02:30:43;16.20;73.40
33988;DHT22;37428;53.580;-1.666;2023-08-12T02:33:52;16.20;73.40
33988;DHT22;37428;53.580;-1.666;2023-08-12T02:36:55;16.30;73.50
33988;DHT22;37428;53.580;-1.666;2023-08-12T02:39:57;16.30;73.60
33988;DHT22;37428;53.580;-1.666;2023-08-12T02:43:03;16.20;73.70
33988;DHT22;37428;53.580;-1.666;2023-08-12T02:46:15;16.20;73.90
33988;DHT22;37428;53.580;-1.666;2023-08-12T02:49:25;16.20;74.00
33988;DHT22;37428;53.580;-1.666;2023-08-12T02:52:28;16.20;74.30
33988;DHT22;37428;53.580;-1.666;2023-08-12T02:55:33;16.20;74.40
33988;DHT22;37428;53.580;-1.666;2023-08-12T02:58:50;16.20;74.70
33988;DHT22;37428;53.580;-1.666;2023-08-12T03:01:54;16.10;75.30
33988;DHT22;37428;53.580;-1.666;2023-08-12T03:04:56;16.00;75.80
33988;DHT22;37428;53.580;-1.666;2023-08-12T03:08:02;16.00;76.20
33988;DHT22;37428;53.580;-1.666;2023-08-12T03:11:07;15.90;76.30
33988;DHT22;37428;53.580;-1.666;2023-08-12T03:14:12;15.90;76.70
33988;DHT22;37428;53.580;-1.666;2023-08-12T03:17:14;15.80;76.90
33988;DHT22;37428;53.580;-1.666;2023-08-12T03:20:17;15.80;77.20
33988;DHT22;37428;53.580;-1.666;2023-08-12T03:23:20;15.70;77.40
33988;DHT22;37428;53.580;-1.666;2023-08-12T03:26:22;15.70;77.60
33988;DHT22;37428;53.580;-1.666;2023-08-12T03:29:31;15.60;77.90
33988;DHT22;37428;53.580;-1.666;2023-08-12T03:32:40;15.60;78.10
33988;DHT22;37428;53.580;-1.666;2023-08-12T03:35:45;15.60;78.40
33988;DHT22;37428;53.580;-1.666;2023-08-12T03:38:49;15.50;78.60
33988;DHT22;37428;53.580;-1.666;2023-08-12T03:41:51;15.50;78.80
33988;DHT22;37428;53.580;-1.666;2023-08-12T03:44:55;15.50;79.00
33988;DHT22;37428;53.580;-1.666;2023-08-12T03:47:59;15.40;79.20
33988;DHT22;37428;53.580;-1.666;2023-08-12T03:51:02;15.40;79.40
33988;DHT22;37428;53.580;-1.666;2023-08-12T03:54:05;15.40;79.60
33988;DHT22;37428;53.580;-1.666;2023-08-12T03:57:12;15.40;79.60
33988;DHT22;37428;53.580;-1.666;2023-08-12T04:00:15;15.40;79.40
33988;DHT22;37428;53.580;-1.666;2023-08-12T04:03:24;15.40;79.50
33988;DHT22;37428;53.580;-1.666;2023-08-12T04:06:27;15.30;79.50
33988;DHT22;37428;53.580;-1.666;2023-08-12T04:09:29;15.30;79.50
33988;DHT22;37428;53.580;-1.666;2023-08-12T04:12:33;15.30;79.60
33988;DHT22;37428;53.580;-1.666;2023-08-12T04:15:37;15.30;79.70
33988;DHT22;37428;53.580;-1.666;2023-08-12T04:18:40;15.40;79.90
33988;DHT22;37428;53.580;-1.666;2023-08-12T04:21:43;15.30;79.90
33988;DHT22;37428;53.580;-1.666;2023-08-12T04:25:02;15.30;80.10
33988;DHT22;37428;53.580;-1.666;2023-08-12T04:28:06;15.30;80.30
33988;DHT22;37428;53.580;-1.666;2023-08-12T04:31:11;15.30;80.50
33988;DHT22;37428;53.580;-1.666;2023-08-12T04:34:13;15.20;80.70
33988;DHT22;37428;53.580;-1.666;2023-08-12T04:37:15;15.30;80.80
33988;DHT22;37428;53.580;-1.666;2023-08-12T04:40:25;15.30;81.00
33988;DHT22;37428;53.580;-1.666;2023-08-12T04:43:31;15.30;81.00
33988;DHT22;37428;53.580;-1.666;2023-08-12T04:46:39;15.30;81.30
33988;DHT22;37428;53.580;-1.666;2023-08-12T04:49:47;15.40;81.50
33988;DHT22;37428;53.580;-1.666;2023-08-12T04:52:51;15.40;81.60
33988;DHT22;37428;53.580;-1.666;2023-08-12T04:55:54;15.40;81.60
33988;DHT22;37428;53.580;-1.666;2023-08-12T04:58:59;15.50;81.70
33988;DHT22;37428;53.580;-1.666;2023-08-12T05:02:12;15.40;81.60
33988;DHT22;37428;53.580;-1.666;2023-08-12T05:05:15;15.40;81.70
33988;DHT22;37428;53.580;-1.666;2023-08-12T05:08:19;15.50;81.70
33988;DHT22;37428;53.580;-1.666;2023-08-12T05:11:23;15.50;81.60
33988;DHT22;37428;53.580;-1.666;2023-08-12T05:14:28;15.50;81.50
33988;DHT22;37428;53.580;-1.666;2023-08-12T05:17:34;15.60;81.40
33988;DHT22;37428;53.580;-1.666;2023-08-12T05:20:36;15.60;81.30
33988;DHT22;37428;53.580;-1.666;2023-08-12T05:23:44;15.60;81.20
33988;DHT22;37428;53.580;-1.666;2023-08-12T05:26:47;15.60;81.40
33988;DHT22;37428;53.580;-1.666;2023-08-12T05:29:56;15.70;81.50
33988;DHT22;37428;53.580;-1.666;2023-08-12T05:33:02;15.70;81.40
33988;DHT22;37428;53.580;-1.666;2023-08-12T05:36:07;15.70;81.40
33988;DHT22;37428;53.580;-1.666;2023-08-12T05:39:15;15.80;81.50
33988;DHT22;37428;53.580;-1.666;2023-08-12T05:42:24;15.90;81.50
33988;DHT22;37428;53.580;-1.666;2023-08-12T05:45:28;15.90;81.10
33988;DHT22;37428;53.580;-1.666;2023-08-12T05:48:32;16.00;81.10
33988;DHT22;37428;53.580;-1.666;2023-08-12T05:51:37;16.00;80.70
33988;DHT22;37428;53.580;-1.666;2023-08-12T05:55:01;16.00;80.70
33988;DHT22;37428;53.580;-1.666;2023-08-12T06:02:01;16.20;80.30
33988;DHT22;37428;53.580;-1.666;2023-08-12T06:05:05;16.30;80.10
33988;DHT22;37428;53.580;-1.666;2023-08-12T06:08:07;16.30;79.50
33988;DHT22;37428;53.580;-1.666;2023-08-12T06:11:10;16.30;80.00
33988;DHT22;37428;53.580;-1.666;2023-08-12T06:14:12;16.40;79.50
33988;DHT22;37428;53.580;-1.666;2023-08-12T06:17:14;16.40;80.10
33988;DHT22;37428;53.580;-1.666;2023-08-12T06:20:18;16.30;80.40
33988;DHT22;37428;53.580;-1.666;2023-08-12T06:23:20;16.20;80.90
33988;DHT22;37428;53.580;-1.666;2023-08-12T06:26:22;16.20;81.20
33988;DHT22;37428;53.580;-1.666;2023-08-12T06:29:24;16.20;81.10
33988;DHT22;37428;53.580;-1.666;2023-08-12T06:32:26;16.20;81.10
33988;DHT22;37428;53.580;-1.666;2023-08-12T06:35:30;16.30;80.90
33988;DHT22;37428;53.580;-1.666;2023-08-12T06:38:32;16.30;80.60
33988;DHT22;37428;53.580;-1.666;2023-08-12T06:41:34;16.30;80.60
33988;DHT22;37428;53.580;-1.666;2023-08-12T06:44:36;16.20;80.80
33988;DHT22;37428;53.580;-1.666;2023-08-12T06:47:38;16.20;81.20
33988;DHT22;37428;53.580;-1.666;2023-08-12T06:50:42;16.20;81.20
33988;DHT22;37428;53.580;-1.666;2023-08-12T06:53:44;16.20;81.50
33988;DHT22;37428;53.580;-1.666;2023-08-12T06:56:46;16.20;81.50
33988;DHT22;37428;53.580;-1.666;2023-08-12T06:59:48;16.20;81.50
33988;DHT22;37428;53.580;-1.666;2023-08-12T07:02:51;16.20;81.70
33988;DHT22;37428;53.580;-1.666;2023-08-12T07:05:54;16.20;82.00
33988;DHT22;37428;53.580;-1.666;2023-08-12T07:08:57;16.20;82.20
33988;DHT22;37428;53.580;-1.666;2023-08-12T07:11:59;16.30;82.30
33988;DHT22;37428;53.580;-1.666;2023-08-12T07:15:03;16.30;82.30
33988;DHT22;37428;53.580;-1.666;2023-08-12T07:18:05;16.30;82.50
33988;DHT22;37428;53.580;-1.666;2023-08-12T07:21:08;16.40;82.40
33988;DHT22;37428;53.580;-1.666;2023-08-12T07:24:10;16.40;82.70
33988;DHT22;37428;53.580;-1.666;2023-08-12T07:27:13;16.40;82.80
33988;DHT22;37428;53.580;-1.666;2023-08-12T07:30:15;16.50;82.70
33988;DHT22;37428;53.580;-1.666;2023-08-12T07:33:17;16.60;82.90
33988;DHT22;37428;53.580;-1.666;2023-08-12T07:36:21;16.70;82.30
33988;DHT22;37428;53.580;-1.666;2023-08-12T07:39:23;16.70;81.20
33988;DHT22;37428;53.580;-1.666;2023-08-12T07:42:26;16.80;81.00
33988;DHT22;37428;53.580;-1.666;2023-08-12T07:45:28;16.90;80.20
33988;DHT22;37428;53.580;-1.666;2023-08-12T07:48:30;16.90;79.50
33988;DHT22;37428;53.580;-1.666;2023-08-12T07:51:33;17.00;79.80
33988;DHT22;37428;53.580;-1.666;2023-08-12T07:54:36;16.90;79.50
33988;DHT22;37428;53.580;-1.666;2023-08-12T07:57:38;16.90;79.50
33988;DHT22;37428;53.580;-1.666;2023-08-12T08:00:40;17.00;79.60
33988;DHT22;37428;53.580;-1.666;2023-08-12T08:03:42;17.00;78.70
33988;DHT22;37428;53.580;-1.666;2023-08-12T08:06:46;17.20;78.60
33988;DHT22;37428;53.580;-1.666;2023-08-12T08:09:48;17.40;78.30
33988;DHT22;37428;53.580;-1.666;2023-08-12T08:12:50;17.50;77.40
33988;DHT22;37428;53.580;-1.666;2023-08-12T08:15:52;17.50;77.10
33988;DHT22;37428;53.580;-1.666;2023-08-12T08:18:54;17.60;77.50
33988;DHT22;37428;53.580;-1.666;2023-08-12T08:21:58;17.60;76.90
33988;DHT22;37428;53.580;-1.666;2023-08-12T08:25:06;17.70;76.70
33988;DHT22;37428;53.580;-1.666;2023-08-12T08:28:08;17.80;75.70
33988;DHT22;37428;53.580;-1.666;2023-08-12T08:31:10;18.00;75.40
33988;DHT22;37428;53.580;-1.666;2023-08-12T08:34:13;18.00;75.00
33988;DHT22;37428;53.580;-1.666;2023-08-12T08:37:16;18.00;75.00
33988;DHT22;37428;53.580;-1.666;2023-08-12T08:40:18;17.90;74.90
33988;DHT22;37428;53.580;-1.666;2023-08-12T08:43:21;17.90;74.30
33988;DHT22;37428;53.580;-1.666;2023-08-12T08:46:23;18.00;75.00
33988;DHT22;37428;53.580;-1.666;2023-08-12T08:49:26;18.20;74.70
33988;DHT22;37428;53.580;-1.666;2023-08-12T08:52:31;18.20;74.40
33988;DHT22;37428;53.580;-1.666;2023-08-12T08:55:34;18.20;72.90
33988;DHT22;37428;53.580;-1.666;2023-08-12T08:58:36;18.20;72.80
33988;DHT22;37428;53.580;-1.666;2023-08-12T09:01:39;18.20;73.30
33988;DHT22;37428;53.580;-1.666;2023-08-12T09:04:42;18.30;73.00
33988;DHT22;37428;53.580;-1.666;2023-08-12T09:07:47;18.30;72.30
33988;DHT22;37428;53.580;-1.666;2023-08-12T09:10:50;18.40;72.20
33988;DHT22;37428;53.580;-1.666;2023-08-12T09:13:53;18.40;72.20
33988;DHT22;37428;53.580;-1.666;2023-08-12T09:16:55;18.40;72.00
33988;DHT22;37428;53.580;-1.666;2023-08-12T09:19:57;18.40;71.90
33988;DHT22;37428;53.580;-1.666;2023-08-12T09:23:02;18.40;72.80
33988;DHT22;37428;53.580;-1.666;2023-08-12T09:26:12;18.40;72.70
33988;DHT22;37428;53.580;-1.666;2023-08-12T09:29:14;18.50;73.00
33988;DHT22;37428;53.580;-1.666;2023-08-12T09:32:19;18.90;72.10
33988;DHT22;37428;53.580;-1.666;2023-08-12T09:35:23;19.40;70.30
33988;DHT22;37428;53.580;-1.666;2023-08-12T09:38:27;19.70;70.30
33988;DHT22;37428;53.580;-1.666;2023-08-12T09:41:29;19.90;69.50
33988;DHT22;37428;53.580;-1.666;2023-08-12T09:44:34;19.70;69.40
33988;DHT22;37428;53.580;-1.666;2023-08-12T09:47:36;19.60;69.30
33988;DHT22;37428;53.580;-1.666;2023-08-12T09:50:42;19.40;70.10
33988;DHT22;37428;53.580;-1.666;2023-08-12T09:53:47;19.40;70.20
33988;DHT22;37428;53.580;-1.666;2023-08-12T09:56:52;19.30;70.70
33988;DHT22;37428;53.580;-1.666;2023-08-12T09:59:57;19.40;71.60
33988;DHT22;37428;53.580;-1.666;2023-08-12T10:03:01;19.50;70.60
33988;DHT22;37428;53.580;-1.666;2023-08-12T10:06:05;19.60;70.90
33988;DHT22;37428;53.580;-1.666;2023-08-12T10:09:10;19.70;70.00
33988;DHT22;37428;53.580;-1.666;2023-08-12T10:12:13;19.80;69.50
33988;DHT22;37428;53.580;-1.666;2023-08-12T10:15:17;19.80;68.60
33988;DHT22;37428;53.580;-1.666;2023-08-12T10:18:19;19.70;68.70
33988;DHT22;37428;53.580;-1.666;2023-08-12T10:21:22;19.90;68.40
33988;DHT22;37428;53.580;-1.666;2023-08-12T10:24:26;20.10;68.30
33988;DHT22;37428;53.580;-1.666;2023-08-12T10:27:29;20.20;67.00
33988;DHT22;37428;53.580;-1.666;2023-08-12T10:30:32;20.30;67.50
33988;DHT22;37428;53.580;-1.666;2023-08-12T10:33:36;20.30;67.20
33988;DHT22;37428;53.580;-1.666;2023-08-12T10:36:41;20.60;67.30
33988;DHT22;37428;53.580;-1.666;2023-08-12T10:39:47;20.60;65.70
33988;DHT22;37428;53.580;-1.666;2023-08-12T10:42:50;21.00;65.50
33988;DHT22;37428;53.580;-1.666;2023-08-12T10:45:53;21.50;64.40
33988;DHT22;37428;53.580;-1.666;2023-08-12T10:48:58;22.00;62.20
33988;DHT22;37428;53.580;-1.666;2023-08-12T10:52:02;21.70;62.80
33988;DHT22;37428;53.580;-1.666;2023-08-12T10:55:18;21.70;64.30
33988;DHT22;37428;53.580;-1.666;2023-08-12T10:58:26;21.50;64.40
33988;DHT22;37428;53.580;-1.666;2023-08-12T11:01:31;21.30;65.00
33988;DHT22;37428;53.580;-1.666;2023-08-12T11:04:37;21.20;66.60
33988;DHT22;37428;53.580;-1.666;2023-08-12T11:07:41;21.10;67.50
33988;DHT22;37428;53.580;-1.666;2023-08-12T11:10:45;21.00;67.30
33988;DHT22;37428;53.580;-1.666;2023-08-12T11:13:53;21.30;67.00
33988;DHT22;37428;53.580;-1.666;2023-08-12T11:16:56;21.20;66.80
33988;DHT22;37428;53.580;-1.666;2023-08-12T11:19:59;21.30;67.30
33988;DHT22;37428;53.580;-1.666;2023-08-12T11:23:02;21.80;66.90
33988;DHT22;37428;53.580;-1.666;2023-08-12T11:26:07;21.60;65.90
33988;DHT22;37428;53.580;-1.666;2023-08-12T11:29:11;21.30;66.60
33988;DHT22;37428;53.580;-1.666;2023-08-12T11:32:14;20.90;68.50
33988;DHT22;37428;53.580;-1.666;2023-08-12T11:35:18;20.90;70.60
33988;DHT22;37428;53.580;-1.666;2023-08-12T11:38:20;20.60;71.70
33988;DHT22;37428;53.580;-1.666;2023-08-12T11:41:24;20.50;70.30
33988;DHT22;37428;53.580;-1.666;2023-08-12T11:44:26;20.60;70.00
33988;DHT22;37428;53.580;-1.666;2023-08-12T11:47:28;20.80;69.60
33988;DHT22;37428;53.580;-1.666;2023-08-12T11:50:30;21.00;71.10
33988;DHT22;37428;53.580;-1.666;2023-08-12T11:53:32;21.20;70.00
33988;DHT22;37428;53.580;-1.666;2023-08-12T11:56:36;21.70;70.90
33988;DHT22;37428;53.580;-1.666;2023-08-12T11:59:38;22.30;68.20
33988;DHT22;37428;53.580;-1.666;2023-08-12T12:02:46;22.00;68.60
33988;DHT22;37428;53.580;-1.666;2023-08-12T12:05:49;22.20;66.60
33988;DHT22;37428;53.580;-1.666;2023-08-12T12:08:52;22.30;66.50
33988;DHT22;37428;53.580;-1.666;2023-08-12T12:11:57;22.10;66.20
33988;DHT22;37428;53.580;-1.666;2023-08-12T12:14:59;21.90;69.50
33988;DHT22;37428;53.580;-1.666;2023-08-12T12:18:02;22.00;71.90
33988;DHT22;37428;53.580;-1.666;2023-08-12T12:21:04;22.00;71.30
33988;DHT22;37428;53.580;-1.666;2023-08-12T12:24:06;21.90;69.30
33988;DHT22;37428;53.580;-1.666;2023-08-12T12:27:11;21.50;68.80
33988;DHT22;37428;53.580;-1.666;2023-08-12T12:30:14;21.50;69.20
33988;DHT22;37428;53.580;-1.666;2023-08-12T12:33:17;21.70;67.60
33988;DHT22;37428;53.580;-1.666;2023-08-12T12:36:19;21.80;68.20
33988;DHT22;37428;53.580;-1.666;2023-08-12T12:39:20;21.70;65.80
33988;DHT22;37428;53.580;-1.666;2023-08-12T12:42:25;21.60;65.50
33988;DHT22;37428;53.580;-1.666;2023-08-12T12:45:27;21.60;66.90
33988;DHT22;37428;53.580;-1.666;2023-08-12T12:48:29;21.60;67.10
33988;DHT22;37428;53.580;-1.666;2023-08-12T12:51:31;22.00;66.60
33988;DHT22;37428;53.580;-1.666;2023-08-12T12:54:33;21.90;65.90
33988;DHT22;37428;53.580;-1.666;2023-08-12T12:57:37;21.60;66.30
33988;DHT22;37428;53.580;-1.666;2023-08-12T13:00:39;21.30;67.20
33988;DHT22;37428;53.580;-1.666;2023-08-12T13:03:41;21.10;68.30
33988;DHT22;37428;53.580;-1.666;2023-08-12T13:06:43;21.70;66.30
33988;DHT22;37428;53.580;-1.666;2023-08-12T13:09:46;21.70;66.10
33988;DHT22;37428;53.580;-1.666;2023-08-12T13:12:49;22.00;65.40
33988;DHT22;37428;53.580;-1.666;2023-08-12T13:15:52;22.20;65.80
33988;DHT22;37428;53.580;-1.666;2023-08-12T13:18:54;22.30;65.10
33988;DHT22;37428;53.580;-1.666;2023-08-12T13:21:56;22.60;64.70
33988;DHT22;37428;53.580;-1.666;2023-08-12T13:24:58;22.70;63.60
33988;DHT22;37428;53.580;-1.666;2023-08-12T13:28:02;22.60;61.10
33988;DHT22;37428;53.580;-1.666;2023-08-12T13:31:22;22.80;62.40
33988;DHT22;37428;53.580;-1.666;2023-08-12T13:34:25;22.50;60.80
33988;DHT22;37428;53.580;-1.666;2023-08-12T13:37:28;22.50;61.70
33988;DHT22;37428;53.580;-1.666;2023-08-12T13:40:30;22.90;61.30
33988;DHT22;37428;53.580;-1.666;2023-08-12T13:43:33;23.20;61.50
33988;DHT22;37428;53.580;-1.666;2023-08-12T13:46:35;23.20;59.20
33988;DHT22;37428;53.580;-1.666;2023-08-12T13:49:37;23.30;59.40
33988;DHT22;37428;53.580;-1.666;2023-08-12T13:52:40;23.60;58.60
33988;DHT22;37428;53.580;-1.666;2023-08-12T13:55:42;23.60;58.50
33988;DHT22;37428;53.580;-1.666;2023-08-12T13:58:45;23.70;58.10
33988;DHT22;37428;53.580;-1.666;2023-08-12T14:01:47;23.80;58.00
33988;DHT22;37428;53.580;-1.666;2023-08-12T14:04:49;23.70;59.70
33988;DHT22;37428;53.580;-1.666;2023-08-12T14:07:51;23.10;59.10
33988;DHT22;37428;53.580;-1.666;2023-08-12T14:10:54;22.80;60.30
33988;DHT22;37428;53.580;-1.666;2023-08-12T14:13:57;22.60;62.20
33988;DHT22;37428;53.580;-1.666;2023-08-12T14:17:00;22.50;62.80
33988;DHT22;37428;53.580;-1.666;2023-08-12T14:20:02;22.30;61.90
33988;DHT22;37428;53.580;-1.666;2023-08-12T14:23:06;22.10;62.00
33988;DHT22;37428;53.580;-1.666;2023-08-12T14:26:09;22.00;63.20
33988;DHT22;37428;53.580;-1.666;2023-08-12T14:29:13;21.90;71.60
33988;DHT22;37428;53.580;-1.666;2023-08-12T14:32:15;21.70;73.60
33988;DHT22;37428;53.580;-1.666;2023-08-12T14:35:19;21.60;72.70
33988;DHT22;37428;53.580;-1.666;2023-08-12T14:38:21;21.50;73.30
33988;DHT22;37428;53.580;-1.666;2023-08-12T14:41:23;21.60;74.40
33988;DHT22;37428;53.580;-1.666;2023-08-12T14:44:27;21.60;71.30
33988;DHT22;37428;53.580;-1.666;2023-08-12T14:47:29;21.80;71.40
33988;DHT22;37428;53.580;-1.666;2023-08-12T14:50:31;22.20;69.50
33988;DHT22;37428;53.580;-1.666;2023-08-12T14:53:33;22.50;65.30
33988;DHT22;37428;53.580;-1.666;2023-08-12T14:56:35;22.90;63.60
33988;DHT22;37428;53.580;-1.666;2023-08-12T14:59:39;23.00;59.80
33988;DHT22;37428;53.580;-1.666;2023-08-12T15:02:41;23.20;59.70
33988;DHT22;37428;53.580;-1.666;2023-08-12T15:05:43;23.40;58.90
33988;DHT22;37428;53.580;-1.666;2023-08-12T15:08:45;23.60;59.50
33988;DHT22;37428;53.580;-1.666;2023-08-12T15:11:48;23.60;57.90
33988;DHT22;37428;53.580;-1.666;2023-08-12T15:14:52;23.80;58.20
33988;DHT22;37428;53.580;-1.666;2023-08-12T15:17:54;23.60;58.40
33988;DHT22;37428;53.580;-1.666;2023-08-12T15:20:56;23.40;58.10
33988;DHT22;37428;53.580;-1.666;2023-08-12T15:23:59;23.20;58.80
33988;DHT22;37428;53.580;-1.666;2023-08-12T15:27:01;23.10;57.80
33988;DHT22;37428;53.580;-1.666;2023-08-12T15:30:06;22.70;58.80
33988;DHT22;37428;53.580;-1.666;2023-08-12T15:33:08;22.40;60.10
33988;DHT22;37428;53.580;-1.666;2023-08-12T15:36:10;22.00;60.50
33988;DHT22;37428;53.580;-1.666;2023-08-12T15:39:12;22.00;60.90
33988;DHT22;37428;53.580;-1.666;2023-08-12T15:42:14;22.00;61.30
33988;DHT22;37428;53.580;-1.666;2023-08-12T15:45:18;22.00;61.60
33988;DHT22;37428;53.580;-1.666;2023-08-12T15:48:20;22.10;63.70
33988;DHT22;37428;53.580;-1.666;2023-08-12T15:51:23;22.10;65.70
33988;DHT22;37428;53.580;-1.666;2023-08-12T15:54:25;22.10;65.60
33988;DHT22;37428;53.580;-1.666;2023-08-12T15:57:27;21.90;64.40
33988;DHT22;37428;53.580;-1.666;2023-08-12T16:00:31;21.80;63.60
33988;DHT22;37428;53.580;-1.666;2023-08-12T16:03:33;21.90;62.90
33988;DHT22;37428;53.580;-1.666;2023-08-12T16:06:35;21.70;63.30
33988;DHT22;37428;53.580;-1.666;2023-08-12T16:09:38;21.50;64.60
33988;DHT22;37428;53.580;-1.666;2023-08-12T16:12:39;21.40;63.90
33988;DHT22;37428;53.580;-1.666;2023-08-12T16:15:43;21.30;63.50
33988;DHT22;37428;53.580;-1.666;2023-08-12T16:18:45;21.10;64.60
33988;DHT22;37428;53.580;-1.666;2023-08-12T16:21:47;20.90;65.90
33988;DHT22;37428;53.580;-1.666;2023-08-12T16:24:49;21.20;65.10
33988;DHT22;37428;53.580;-1.666;2023-08-12T16:27:51;21.30;63.20
33988;DHT22;37428;53.580;-1.666;2023-08-12T16:30:55;21.50;60.60
33988;DHT22;37428;53.580;-1.666;2023-08-12T16:33:57;21.60;60.10
33988;DHT22;37428;53.580;-1.666;2023-08-12T16:36:59;21.70;59.40
33988;DHT22;37428;53.580;-1.666;2023-08-12T16:40:01;21.60;59.90
33988;DHT22;37428;53.580;-1.666;2023-08-12T16:43:03;21.70;60.40
33988;DHT22;37428;53.580;-1.666;2023-08-12T16:46:07;21.40;61.30
33988;DHT22;37428;53.580;-1.666;2023-08-12T16:49:09;21.30;62.10
33988;DHT22;37428;53.580;-1.666;2023-08-12T16:52:12;21.10;63.50
33988;DHT22;37428;53.580;-1.666;2023-08-12T16:55:14;21.20;63.50
33988;DHT22;37428;53.580;-1.666;2023-08-12T16:58:16;21.30;62.20
33988;DHT22;37428;53.580;-1.666;2023-08-12T17:01:20;21.50;61.90
33988;DHT22;37428;53.580;-1.666;2023-08-12T17:04:22;21.40;60.30
33988;DHT22;37428;53.580;-1.666;2023-08-12T17:07:24;21.30;58.70
33988;DHT22;37428;53.580;-1.666;2023-08-12T17:10:26;21.20;58.80
33988;DHT22;37428;53.580;-1.666;2023-08-12T17:13:29;21.20;59.30
33988;DHT22;37428;53.580;-1.666;2023-08-12T17:16:33;21.20;60.80
33988;DHT22;37428;53.580;-1.666;2023-08-12T17:19:35;21.10;59.50
33988;DHT22;37428;53.580;-1.666;2023-08-12T17:22:39;21.00;59.20
33988;DHT22;37428;53.580;-1.666;2023-08-12T17:25:41;20.70;58.90
33988;DHT22;37428;53.580;-1.666;2023-08-12T17:28:44;20.40;59.60
33988;DHT22;37428;53.580;-1.666;2023-08-12T17:31:47;20.20;60.50
33988;DHT22;37428;53.580;-1.666;2023-08-12T17:34:49;20.20;61.20
33988;DHT22;37428;53.580;-1.666;2023-08-12T17:37:52;20.10;61.80
33988;DHT22;37428;53.580;-1.666;2023-08-12T17:40:54;20.10;61.80
33988;DHT22;37428;53.580;-1.666;2023-08-12T17:43:56;20.10;62.30
33988;DHT22;37428;53.580;-1.666;2023-08-12T17:47:00;20.00;63.10
33988;DHT22;37428;53.580;-1.666;2023-08-12T17:50:03;19.90;62.40
33988;DHT22;37428;53.580;-1.666;2023-08-12T17:53:05;19.80;63.10
33988;DHT22;37428;53.580;-1.666;2023-08-12T17:56:07;19.80;62.70
33988;DHT22;37428;53.580;-1.666;2023-08-12T17:59:10;19.70;62.70
33988;DHT22;37428;53.580;-1.666;2023-08-12T18:02:13;19.60;62.80
33988;DHT22;37428;53.580;-1.666;2023-08-12T18:05:16;19.50;62.80
33988;DHT22;37428;53.580;-1.666;2023-08-12T18:08:18;19.50;63.30
33988;DHT22;37428;53.580;-1.666;2023-08-12T18:11:20;19.40;63.10
33988;DHT22;37428;53.580;-1.666;2023-08-12T18:14:22;19.30;63.10
33988;DHT22;37428;53.580;-1.666;2023-08-12T18:17:26;19.20;62.90
33988;DHT22;37428;53.580;-1.666;2023-08-12T18:20:28;19.20;63.00
33988;DHT22;37428;53.580;-1.666;2023-08-12T18:23:30;19.20;63.30
33988;DHT22;37428;53.580;-1.666;2023-08-12T18:26:32;19.10;62.90
33988;DHT22;37428;53.580;-1.666;2023-08-12T18:29:34;19.00;62.80
33988;DHT22;37428;53.580;-1.666;2023-08-12T18:32:38;19.00;63.30
33988;DHT22;37428;53.580;-1.666;2023-08-12T18:35:40;18.90;63.10
33988;DHT22;37428;53.580;-1.666;2023-08-12T18:38:45;18.90;63.20
33988;DHT22;37428;53.580;-1.666;2023-08-12T18:41:49;18.80;63.60
33988;DHT22;37428;53.580;-1.666;2023-08-12T18:44:51;18.70;63.20
33988;DHT22;37428;53.580;-1.666;2023-08-12T18:47:55;18.60;63.50
33988;DHT22;37428;53.580;-1.666;2023-08-12T18:50:57;18.60;63.60
33988;DHT22;37428;53.580;-1.666;2023-08-12T18:53:59;18.60;63.70
33988;DHT22;37428;53.580;-1.666;2023-08-12T18:57:01;18.60;63.90
33988;DHT22;37428;53.580;-1.666;2023-08-12T19:00:06;18.60;64.20
33988;DHT22;37428;53.580;-1.666;2023-08-12T19:03:10;18.50;64.10
33988;DHT22;37428;53.580;-1.666;2023-08-12T19:06:12;18.60;64.40